METAR Data
IDs: Format: Raw Decoded Include TAF

Data at: 2110 UTC 14 Dec 2018

METAR for:KSNS (Salinas Muni, CA, US)
Text:KSNS 142053Z 14011KT 10SM BKN055 18/09 A3009 RMK AO2 SLP198 T01780089 50008
Temperature: 17.8°C ( 64°F)
Dewpoint: 8.9°C ( 48°F) [RH = 56%]
Pressure (altimeter):30.09 inches Hg (1019.0 mb) [Sea level pressure: 1019.8 mb]
Winds:from the SE (140 degrees) at 13 MPH (11 knots; 5.7 m/s)
Visibility:10 or more sm (16+ km)
Ceiling:5500 feet AGL
Clouds: broken clouds at 5500 feet AGL
Text:KSNS 141953Z 14007KT 10SM CLR 18/09 A3012 RMK AO2 SLP208 T01780089
Temperature: 17.8°C ( 64°F)
Dewpoint: 8.9°C ( 48°F) [RH = 56%]
Pressure (altimeter):30.12 inches Hg (1020.1 mb) [Sea level pressure: 1020.8 mb]
Winds:from the SE (140 degrees) at 8 MPH (7 knots; 3.6 m/s)
Visibility:10 or more sm (16+ km)
Ceiling:at least 12,000 feet AGL
Clouds:sky clear below 12,000 feet AGL
Text:KSNS 141853Z 15011G17KT 10SM CLR 16/09 A3010 RMK AO2 SLP202 T01560094
Temperature: 15.6°C ( 60°F)
Dewpoint: 9.4°C ( 49°F) [RH = 67%]
Pressure (altimeter):30.10 inches Hg (1019.4 mb) [Sea level pressure: 1020.2 mb]
Winds:from the SSE (150 degrees) at 13 MPH (11 knots; 5.7 m/s) gusting to 20 MPH (17 knots; 8.7 m/s)
Visibility:10 or more sm (16+ km)
Ceiling:at least 12,000 feet AGL
Clouds:sky clear below 12,000 feet AGL
Text:KSNS 141753Z 15017KT 10SM CLR 14/09 A3007 RMK AO2 SLP190 T01390089 10139 20100 56008
Temperature: 13.9°C ( 57°F)
Dewpoint: 8.9°C ( 48°F) [RH = 72%]
Pressure (altimeter):30.07 inches Hg (1018.4 mb) [Sea level pressure: 1019.0 mb]
Winds:from the SSE (150 degrees) at 20 MPH (17 knots; 8.7 m/s)
Visibility:10 or more sm (16+ km)
Ceiling:at least 12,000 feet AGL
Clouds:sky clear below 12,000 feet AGL
Text:KSNS 141653Z 16018KT 10SM CLR 14/08 A3007 RMK AO2 SLP191 T01390083
Temperature: 13.9°C ( 57°F)
Dewpoint: 8.3°C ( 47°F) [RH = 69%]
Pressure (altimeter):30.07 inches Hg (1018.4 mb) [Sea level pressure: 1019.1 mb]
Winds:from the SSE (160 degrees) at 21 MPH (18 knots; 9.3 m/s)
Visibility:10 or more sm (16+ km)
Ceiling:at least 12,000 feet AGL
Clouds:sky clear below 12,000 feet AGL
Text:KSNS 141553Z 15012KT 10SM CLR 12/06 A3008 RMK AO2 SLP193 T01220061
Temperature: 12.2°C ( 54°F)
Dewpoint: 6.1°C ( 43°F) [RH = 66%]
Pressure (altimeter):30.08 inches Hg (1018.7 mb) [Sea level pressure: 1019.3 mb]
Winds:from the SSE (150 degrees) at 14 MPH (12 knots; 6.2 m/s)
Visibility:10 or more sm (16+ km)
Ceiling:at least 12,000 feet AGL
Clouds:sky clear below 12,000 feet AGL
Text:KSNS 141453Z 00000KT 10SM CLR 12/05 A3009 RMK AO2 SLP198 T01170050 53001
Temperature: 11.7°C ( 53°F)
Dewpoint: 5.0°C ( 41°F) [RH = 63%]
Pressure (altimeter):30.09 inches Hg (1019.0 mb) [Sea level pressure: 1019.8 mb]
Winds:calm
Visibility:10 or more sm (16+ km)
Ceiling:at least 12,000 feet AGL
Clouds:sky clear below 12,000 feet AGL
Text:KSNS 141353Z 10010KT 10SM CLR 11/05 A3006 RMK AO2 SLP187 T01060050
Temperature: 10.6°C ( 51°F)
Dewpoint: 5.0°C ( 41°F) [RH = 68%]
Pressure (altimeter):30.06 inches Hg (1018.0 mb) [Sea level pressure: 1018.7 mb]
Winds:from the E (100 degrees) at 12 MPH (10 knots; 5.1 m/s)
Visibility:10 or more sm (16+ km)
Ceiling:at least 12,000 feet AGL
Clouds:sky clear below 12,000 feet AGL
Text:KSNS 141253Z AUTO 12003KT 10SM CLR 10/05 A3008 RMK AO2 SLP194 T01000050
Temperature: 10.0°C ( 50°F)
Dewpoint: 5.0°C ( 41°F) [RH = 71%]
Pressure (altimeter):30.08 inches Hg (1018.7 mb) [Sea level pressure: 1019.4 mb]
Winds:from the ESE (120 degrees) at 3 MPH (3 knots; 1.5 m/s)
Visibility:10 or more sm (16+ km)
Ceiling:at least 12,000 feet AGL
Clouds:sky clear below 12,000 feet AGL
QC Flag:automated observation with no human augmentation
Text:KSNS 141153Z AUTO 14003KT 10SM CLR 11/06 A3009 RMK AO2 SLP197 T01060056 10122 20106 53008
Temperature: 10.6°C ( 51°F)
Dewpoint: 5.6°C ( 42°F) [RH = 71%]
Pressure (altimeter):30.09 inches Hg (1019.0 mb) [Sea level pressure: 1019.7 mb]
Winds:from the SE (140 degrees) at 3 MPH (3 knots; 1.5 m/s)
Visibility:10 or more sm (16+ km)
Ceiling:at least 12,000 feet AGL
Clouds:sky clear below 12,000 feet AGL
QC Flag:automated observation with no human augmentation
Text:KSNS 141053Z AUTO 15011KT 10SM CLR 12/06 A3008 RMK AO2 SLP196 T01170056
Temperature: 11.7°C ( 53°F)
Dewpoint: 5.6°C ( 42°F) [RH = 66%]
Pressure (altimeter):30.08 inches Hg (1018.7 mb) [Sea level pressure: 1019.6 mb]
Winds:from the SSE (150 degrees) at 13 MPH (11 knots; 5.7 m/s)
Visibility:10 or more sm (16+ km)
Ceiling:at least 12,000 feet AGL
Clouds:sky clear below 12,000 feet AGL
QC Flag:automated observation with no human augmentation
Text:KSNS 140953Z AUTO 11010KT 10SM CLR 11/06 A3006 RMK AO2 SLP190 T01110056
Temperature: 11.1°C ( 52°F)
Dewpoint: 5.6°C ( 42°F) [RH = 69%]
Pressure (altimeter):30.06 inches Hg (1018.0 mb) [Sea level pressure: 1019.0 mb]
Winds:from the ESE (110 degrees) at 12 MPH (10 knots; 5.1 m/s)
Visibility:10 or more sm (16+ km)
Ceiling:at least 12,000 feet AGL
Clouds:sky clear below 12,000 feet AGL
QC Flag:automated observation with no human augmentation